sensor_id;sensor_type;location;lat;lon;timestamp;pressure;altitude;pressure_sealevel;temperature;humidity
71791;BME280;59638;52.126;5.434;2023-05-16T00:01:32;102068.22;;;9.36;98.68
71791;BME280;59638;52.126;5.434;2023-05-16T00:04:01;102067.97;;;9.26;99.29
71791;BME280;59638;52.126;5.434;2023-05-16T00:06:30;102062.66;;;9.14;98.11
71791;BME280;59638;52.126;5.434;2023-05-16T00:08:57;102059.47;;;9.09;99.08
71791;BME280;59638;52.126;5.434;2023-05-16T00:11:23;102073.56;;;9.08;98.30
71791;BME280;59638;52.126;5.434;2023-05-16T00:13:50;102071.28;;;9.16;98.05
71791;BME280;59638;52.126;5.434;2023-05-16T00:16:16;102074.69;;;9.18;97.50
71791;BME280;59638;52.126;5.434;2023-05-16T00:18:43;102083.34;;;9.20;96.62
71791;BME280;59638;52.126;5.434;2023-05-16T00:21:10;102076.28;;;9.20;96.74
71791;BME280;59638;52.126;5.434;2023-05-16T00:23:37;102076.16;;;9.22;97.65
71791;BME280;59638;52.126;5.434;2023-05-16T00:26:04;102073.94;;;9.16;97.46
71791;BME280;59638;52.126;5.434;2023-05-16T00:28:30;102080.63;;;9.07;98.31
71791;BME280;59638;52.126;5.434;2023-05-16T00:30:57;102081.31;;;8.96;98.83
71791;BME280;59638;52.126;5.434;2023-05-16T00:33:23;102075.91;;;8.85;99.35
71791;BME280;59638;52.126;5.434;2023-05-16T00:35:49;102074.13;;;8.71;97.99
71791;BME280;59638;52.126;5.434;2023-05-16T00:38:16;102078.88;;;8.65;99.27
71791;BME280;59638;52.126;5.434;2023-05-16T00:40:43;102075.91;;;8.57;98.95
71791;BME280;59638;52.126;5.434;2023-05-16T00:43:09;102073.47;;;8.54;99.48
71791;BME280;59638;52.126;5.434;2023-05-16T00:45:36;102083.78;;;8.42;99.68
71791;BME280;59638;52.126;5.434;2023-05-16T00:48:02;102082.47;;;8.35;99.08
71791;BME280;59638;52.126;5.434;2023-05-16T00:50:29;102083.56;;;8.31;99.46
71791;BME280;59638;52.126;5.434;2023-05-16T00:52:55;102084.13;;;8.22;99.24
71791;BME280;59638;52.126;5.434;2023-05-16T00:55:22;102084.69;;;8.13;99.62
71791;BME280;59638;52.126;5.434;2023-05-16T00:57:49;102089.16;;;8.11;99.75
71791;BME280;59638;52.126;5.434;2023-05-16T01:00:16;102087.47;;;8.10;99.39
71791;BME280;59638;52.126;5.434;2023-05-16T01:02:45;102086.91;;;8.05;99.67
71791;BME280;59638;52.126;5.434;2023-05-16T01:05:12;102087.09;;;8.02;100.00
71791;BME280;59638;52.126;5.434;2023-05-16T01:07:39;102085.22;;;8.04;100.00
71791;BME280;59638;52.126;5.434;2023-05-16T01:10:06;102083.72;;;8.00;100.00
71791;BME280;59638;52.126;5.434;2023-05-16T01:12:36;102078.63;;;7.97;100.00
71791;BME280;59638;52.126;5.434;2023-05-16T01:15:12;102086.13;;;7.88;100.00
71791;BME280;59638;52.126;5.434;2023-05-16T01:17:49;102089.09;;;7.82;100.00
71791;BME280;59638;52.126;5.434;2023-05-16T01:26:44;102084.50;;;7.56;100.00
71791;BME280;59638;52.126;5.434;2023-05-16T01:29:03;102095.75;;;7.58;100.00
71791;BME280;59638;52.126;5.434;2023-05-16T01:31:30;102098.41;;;7.58;100.00
71791;BME280;59638;52.126;5.434;2023-05-16T01:33:57;102093.31;;;7.55;100.00
71791;BME280;59638;52.126;5.434;2023-05-16T01:36:30;102090.28;;;7.47;100.00
71791;BME280;59638;52.126;5.434;2023-05-16T01:39:29;102094.38;;;7.36;100.00
71791;BME280;59638;52.126;5.434;2023-05-16T01:42:10;102085.88;;;7.31;100.00
71791;BME280;59638;52.126;5.434;2023-05-16T01:47:35;102091.47;;;7.25;100.00
71791;BME280;59638;52.126;5.434;2023-05-16T01:50:30;102100.38;;;7.23;100.00
71791;BME280;59638;52.126;5.434;2023-05-16T01:52:59;102101.75;;;7.14;100.00
71791;BME280;59638;52.126;5.434;2023-05-16T01:55:46;102102.09;;;7.08;100.00
71791;BME280;59638;52.126;5.434;2023-05-16T01:58:14;102099.63;;;7.05;100.00
71791;BME280;59638;52.126;5.434;2023-05-16T02:00:41;102103.88;;;7.07;100.00
71791;BME280;59638;52.126;5.434;2023-05-16T02:03:07;102108.09;;;7.10;100.00
71791;BME280;59638;52.126;5.434;2023-05-16T02:05:34;102104.53;;;7.11;100.00
71791;BME280;59638;52.126;5.434;2023-05-16T02:08:01;102106.41;;;7.09;100.00
71791;BME280;59638;52.126;5.434;2023-05-16T02:10:28;102107.25;;;7.09;100.00
71791;BME280;59638;52.126;5.434;2023-05-16T02:12:54;102118.78;;;7.07;100.00
71791;BME280;59638;52.126;5.434;2023-05-16T02:15:21;102110.91;;;7.07;100.00
71791;BME280;59638;52.126;5.434;2023-05-16T02:17:47;102116.41;;;7.02;100.00
71791;BME280;59638;52.126;5.434;2023-05-16T02:20:14;102121.66;;;7.02;100.00
71791;BME280;59638;52.126;5.434;2023-05-16T02:22:40;102122.31;;;7.06;100.00
71791;BME280;59638;52.126;5.434;2023-05-16T02:25:13;102123.09;;;7.08;100.00
71791;BME280;59638;52.126;5.434;2023-05-16T02:27:41;102121.41;;;7.07;100.00
71791;BME280;59638;52.126;5.434;2023-05-16T02:30:09;102126.56;;;7.08;100.00
71791;BME280;59638;52.126;5.434;2023-05-16T02:32:40;102118.59;;;7.10;100.00
71791;BME280;59638;52.126;5.434;2023-05-16T02:35:06;102120.47;;;7.08;100.00
71791;BME280;59638;52.126;5.434;2023-05-16T02:37:33;102121.22;;;7.10;100.00
71791;BME280;59638;52.126;5.434;2023-05-16T02:39:59;102121.06;;;7.13;100.00
71791;BME280;59638;52.126;5.434;2023-05-16T02:42:26;102131.56;;;7.13;100.00
71791;BME280;59638;52.126;5.434;2023-05-16T02:44:53;102131.56;;;7.13;100.00
71791;BME280;59638;52.126;5.434;2023-05-16T02:47:19;102128.94;;;7.13;100.00
71791;BME280;59638;52.126;5.434;2023-05-16T02:49:46;102132.34;;;7.15;100.00
71791;BME280;59638;52.126;5.434;2023-05-16T02:52:12;102132.34;;;7.15;100.00
71791;BME280;59638;52.126;5.434;2023-05-16T02:54:39;102123.50;;;7.16;100.00
71791;BME280;59638;52.126;5.434;2023-05-16T02:57:05;102127.84;;;7.17;100.00
71791;BME280;59638;52.126;5.434;2023-05-16T02:59:32;102133.25;;;7.14;100.00
71791;BME280;59638;52.126;5.434;2023-05-16T03:01:58;102134.53;;;7.07;100.00
71791;BME280;59638;52.126;5.434;2023-05-16T03:04:25;102131.38;;;7.00;100.00
71791;BME280;59638;52.126;5.434;2023-05-16T03:06:51;102140.13;;;7.01;100.00
71791;BME280;59638;52.126;5.434;2023-05-16T03:09:17;102142.78;;;6.99;100.00
71791;BME280;59638;52.126;5.434;2023-05-16T03:11:45;102143.81;;;6.97;100.00
71791;BME280;59638;52.126;5.434;2023-05-16T03:14:11;102150.00;;;6.96;100.00
71791;BME280;59638;52.126;5.434;2023-05-16T03:16:38;102140.25;;;6.98;100.00
71791;BME280;59638;52.126;5.434;2023-05-16T03:19:06;102149.91;;;6.97;100.00
71791;BME280;59638;52.126;5.434;2023-05-16T03:21:33;102152.97;;;6.90;100.00
71791;BME280;59638;52.126;5.434;2023-05-16T03:24:01;102146.00;;;6.89;100.00
71791;BME280;59638;52.126;5.434;2023-05-16T03:26:27;102151.94;;;6.92;100.00
71791;BME280;59638;52.126;5.434;2023-05-16T03:28:54;102152.13;;;6.89;100.00
71791;BME280;59638;52.126;5.434;2023-05-16T03:31:20;102160.41;;;6.81;100.00
71791;BME280;59638;52.126;5.434;2023-05-16T03:33:47;102150.03;;;6.78;100.00
71791;BME280;59638;52.126;5.434;2023-05-16T03:36:13;102162.41;;;6.76;100.00
71791;BME280;59638;52.126;5.434;2023-05-16T03:38:39;102159.03;;;6.74;100.00
71791;BME280;59638;52.126;5.434;2023-05-16T03:41:06;102160.84;;;6.72;100.00
71791;BME280;59638;52.126;5.434;2023-05-16T03:43:32;102161.88;;;6.70;100.00
71791;BME280;59638;52.126;5.434;2023-05-16T03:46:00;102166.81;;;6.76;100.00
71791;BME280;59638;52.126;5.434;2023-05-16T03:48:27;102169.19;;;6.80;100.00
71791;BME280;59638;52.126;5.434;2023-05-16T03:50:53;102167.66;;;6.76;100.00
71791;BME280;59638;52.126;5.434;2023-05-16T03:53:19;102169.53;;;6.74;100.00
71791;BME280;59638;52.126;5.434;2023-05-16T03:55:46;102174.78;;;6.74;100.00
71791;BME280;59638;52.126;5.434;2023-05-16T03:58:14;102176.47;;;6.75;100.00
71791;BME280;59638;52.126;5.434;2023-05-16T04:00:41;102175.63;;;6.75;100.00
71791;BME280;59638;52.126;5.434;2023-05-16T04:03:07;102186.97;;;6.75;100.00
71791;BME280;59638;52.126;5.434;2023-05-16T04:05:34;102174.59;;;6.77;100.00
71791;BME280;59638;52.126;5.434;2023-05-16T04:08:00;102185.63;;;6.84;100.00
71791;BME280;59638;52.126;5.434;2023-05-16T04:10:27;102184.94;;;6.80;100.00
71791;BME280;59638;52.126;5.434;2023-05-16T04:12:53;102181.72;;;6.75;100.00
71791;BME280;59638;52.126;5.434;2023-05-16T04:15:20;102186.16;;;6.73;100.00
71791;BME280;59638;52.126;5.434;2023-05-16T04:17:46;102180.88;;;6.75;100.00
71791;BME280;59638;52.126;5.434;2023-05-16T04:20:13;102187.56;;;6.80;100.00
71791;BME280;59638;52.126;5.434;2023-05-16T04:22:39;102183.09;;;6.82;100.00
71791;BME280;59638;52.126;5.434;2023-05-16T04:25:06;102182.75;;;6.89;100.00
71791;BME280;59638;52.126;5.434;2023-05-16T04:27:32;102183.53;;;6.91;100.00
71791;BME280;59638;52.126;5.434;2023-05-16T04:29:59;102193.25;;;6.89;100.00
71791;BME280;59638;52.126;5.434;2023-05-16T04:32:25;102189.47;;;6.94;100.00
71791;BME280;59638;52.126;5.434;2023-05-16T04:34:54;102197.34;;;6.94;100.00
71791;BME280;59638;52.126;5.434;2023-05-16T04:37:20;102207.91;;;6.93;100.00
71791;BME280;59638;52.126;5.434;2023-05-16T04:39:47;102205.44;;;6.90;100.00
71791;BME280;59638;52.126;5.434;2023-05-16T04:42:13;102208.84;;;6.92;100.00
71791;BME280;59638;52.126;5.434;2023-05-16T04:44:40;102209.78;;;6.91;100.00
71791;BME280;59638;52.126;5.434;2023-05-16T04:47:07;102210.53;;;6.93;100.00
71791;BME280;59638;52.126;5.434;2023-05-16T04:49:34;102212.78;;;7.00;100.00
71791;BME280;59638;52.126;5.434;2023-05-16T04:52:00;102218.38;;;7.10;100.00
71791;BME280;59638;52.126;5.434;2023-05-16T04:54:27;102209.75;;;7.24;100.00
71791;BME280;59638;52.126;5.434;2023-05-16T04:56:53;102222.13;;;7.38;100.00
71791;BME280;59638;52.126;5.434;2023-05-16T04:59:20;102215.47;;;7.48;100.00
71791;BME280;59638;52.126;5.434;2023-05-16T05:01:47;102208.94;;;7.55;100.00
71791;BME280;59638;52.126;5.434;2023-05-16T05:04:13;102216.41;;;7.62;100.00
71791;BME280;59638;52.126;5.434;2023-05-16T05:06:39;102220.47;;;7.68;99.72
71791;BME280;59638;52.126;5.434;2023-05-16T05:09:06;102222.66;;;7.76;100.00
71791;BME280;59638;52.126;5.434;2023-05-16T05:11:32;102225.69;;;7.84;99.43
71791;BME280;59638;52.126;5.434;2023-05-16T05:13:59;102214.75;;;7.91;99.11
71791;BME280;59638;52.126;5.434;2023-05-16T05:16:25;102211.78;;;7.98;99.02
71791;BME280;59638;52.126;5.434;2023-05-16T05:18:52;102210.34;;;8.08;98.61
71791;BME280;59638;52.126;5.434;2023-05-16T05:21:19;102219.56;;;8.15;98.13
71791;BME280;59638;52.126;5.434;2023-05-16T05:23:46;102217.16;;;8.26;97.25
71791;BME280;59638;52.126;5.434;2023-05-16T05:26:14;102222.06;;;8.32;98.13
71791;BME280;59638;52.126;5.434;2023-05-16T05:28:41;102225.97;;;8.41;97.24
71791;BME280;59638;52.126;5.434;2023-05-16T05:31:16;102220.00;;;8.53;97.39
71791;BME280;59638;52.126;5.434;2023-05-16T05:33:42;102235.91;;;8.66;96.34
71791;BME280;59638;52.126;5.434;2023-05-16T05:36:09;102237.63;;;8.81;96.77
71791;BME280;59638;52.126;5.434;2023-05-16T05:38:35;102233.88;;;8.85;96.20
71791;BME280;59638;52.126;5.434;2023-05-16T05:41:03;102239.88;;;8.87;96.06
71791;BME280;59638;52.126;5.434;2023-05-16T05:43:29;102232.16;;;8.84;95.70
71791;BME280;59638;52.126;5.434;2023-05-16T05:45:55;102237.63;;;8.95;95.43
71791;BME280;59638;52.126;5.434;2023-05-16T05:48:22;102238.56;;;9.09;94.40
71791;BME280;59638;52.126;5.434;2023-05-16T05:50:48;102241.19;;;9.23;94.63
71791;BME280;59638;52.126;5.434;2023-05-16T05:53:15;102237.63;;;9.24;94.80
71791;BME280;59638;52.126;5.434;2023-05-16T05:55:41;102248.56;;;9.32;95.39
71791;BME280;59638;52.126;5.434;2023-05-16T05:58:08;102249.66;;;9.42;95.23
71791;BME280;59638;52.126;5.434;2023-05-16T06:00:34;102252.59;;;9.52;94.91
71791;BME280;59638;52.126;5.434;2023-05-16T06:03:01;102251.34;;;9.58;94.82
71791;BME280;59638;52.126;5.434;2023-05-16T06:05:28;102248.31;;;9.64;95.21
71791;BME280;59638;52.126;5.434;2023-05-16T06:07:55;102252.91;;;9.74;93.73
71791;BME280;59638;52.126;5.434;2023-05-16T06:10:21;102249.22;;;9.91;93.20
71791;BME280;59638;52.126;5.434;2023-05-16T06:12:48;102248.72;;;9.99;92.65
71791;BME280;59638;52.126;5.434;2023-05-16T06:15:14;102260.44;;;10.07;91.92
71791;BME280;59638;52.126;5.434;2023-05-16T06:17:41;102257.31;;;10.42;91.17
71791;BME280;59638;52.126;5.434;2023-05-16T06:20:07;102263.75;;;10.38;91.81
71791;BME280;59638;52.126;5.434;2023-05-16T06:22:34;102258.03;;;10.31;91.50
71791;BME280;59638;52.126;5.434;2023-05-16T06:25:00;102270.50;;;10.42;91.48
71791;BME280;59638;52.126;5.434;2023-05-16T06:27:27;102274.25;;;10.52;90.31
71791;BME280;59638;52.126;5.434;2023-05-16T06:29:54;102276.25;;;10.61;91.48
71791;BME280;59638;52.126;5.434;2023-05-16T06:32:20;102277.44;;;10.70;89.68
71791;BME280;59638;52.126;5.434;2023-05-16T06:34:47;102277.34;;;10.72;90.05
71791;BME280;59638;52.126;5.434;2023-05-16T06:37:14;102272.47;;;10.66;89.61
71791;BME280;59638;52.126;5.434;2023-05-16T06:39:40;102274.88;;;10.69;89.35
71791;BME280;59638;52.126;5.434;2023-05-16T06:42:06;102270.59;;;10.93;87.25
71791;BME280;59638;52.126;5.434;2023-05-16T06:44:33;102265.50;;;11.15;86.24
71791;BME280;59638;52.126;5.434;2023-05-16T06:46:59;102274.63;;;11.24;86.01
71791;BME280;59638;52.126;5.434;2023-05-16T06:49:26;102273.34;;;11.30;86.84
71791;BME280;59638;52.126;5.434;2023-05-16T06:51:52;102263.47;;;11.57;85.35
71791;BME280;59638;52.126;5.434;2023-05-16T06:54:19;102264.16;;;11.85;82.43
71791;BME280;59638;52.126;5.434;2023-05-16T06:56:45;102272.41;;;11.67;83.07
71791;BME280;59638;52.126;5.434;2023-05-16T06:59:12;102272.66;;;12.01;82.47
71791;BME280;59638;52.126;5.434;2023-05-16T07:01:38;102272.13;;;12.44;81.86
71791;BME280;59638;52.126;5.434;2023-05-16T07:04:05;102277.41;;;12.68;79.83
71791;BME280;59638;52.126;5.434;2023-05-16T07:06:32;102266.28;;;13.09;79.45
71791;BME280;59638;52.126;5.434;2023-05-16T07:08:58;102271.97;;;13.49;76.94
71791;BME280;59638;52.126;5.434;2023-05-16T07:11:25;102268.84;;;13.44;76.70
71791;BME280;59638;52.126;5.434;2023-05-16T07:13:51;102274.25;;;13.54;76.18
71791;BME280;59638;52.126;5.434;2023-05-16T07:16:17;102275.91;;;13.77;73.80
71791;BME280;59638;52.126;5.434;2023-05-16T07:18:44;102271.09;;;13.82;75.31
71791;BME280;59638;52.126;5.434;2023-05-16T07:21:11;102271.25;;;14.13;73.80
71791;BME280;59638;52.126;5.434;2023-05-16T07:23:37;102271.78;;;15.32;67.48
71791;BME280;59638;52.126;5.434;2023-05-16T07:26:03;102272.31;;;16.26;65.39
71791;BME280;59638;52.126;5.434;2023-05-16T07:28:30;102285.69;;;15.15;71.01
71791;BME280;59638;52.126;5.434;2023-05-16T07:30:56;102278.16;;;16.00;67.75
71791;BME280;59638;52.126;5.434;2023-05-16T07:33:24;102277.59;;;15.87;64.35
71791;BME280;59638;52.126;5.434;2023-05-16T07:35:50;102285.31;;;16.10;62.54
71791;BME280;59638;52.126;5.434;2023-05-16T07:38:26;102283.28;;;14.17;71.74
71791;BME280;59638;52.126;5.434;2023-05-16T07:40:52;102285.59;;;13.45;73.09
71791;BME280;59638;52.126;5.434;2023-05-16T07:43:19;102278.41;;;15.17;69.70
71791;BME280;59638;52.126;5.434;2023-05-16T07:45:46;102284.91;;;16.43;65.43
71791;BME280;59638;52.126;5.434;2023-05-16T07:48:12;102277.22;;;15.00;67.85
71791;BME280;59638;52.126;5.434;2023-05-16T07:50:38;102279.69;;;14.92;68.46
71791;BME280;59638;52.126;5.434;2023-05-16T07:53:05;102282.44;;;14.81;68.73
71791;BME280;59638;52.126;5.434;2023-05-16T07:55:31;102285.47;;;15.98;65.96
71791;BME280;59638;52.126;5.434;2023-05-16T07:57:58;102282.88;;;17.03;62.92
71791;BME280;59638;52.126;5.434;2023-05-16T08:00:24;102294.66;;;15.75;66.51
71791;BME280;59638;52.126;5.434;2023-05-16T08:02:51;102306.84;;;14.54;66.86
71791;BME280;59638;52.126;5.434;2023-05-16T08:05:18;102323.16;;;13.16;75.29
71791;BME280;59638;52.126;5.434;2023-05-16T08:07:44;102317.19;;;12.07;79.57
71791;BME280;59638;52.126;5.434;2023-05-16T08:10:11;102322.63;;;11.31;83.24
71791;BME280;59638;52.126;5.434;2023-05-16T08:12:39;102322.81;;;10.89;85.47
71791;BME280;59638;52.126;5.434;2023-05-16T08:15:06;102338.75;;;10.48;89.33
71791;BME280;59638;52.126;5.434;2023-05-16T08:17:32;102331.53;;;10.38;90.37
71791;BME280;59638;52.126;5.434;2023-05-16T08:19:59;102318.44;;;12.14;89.74
71791;BME280;59638;52.126;5.434;2023-05-16T08:22:27;102302.78;;;15.83;80.02
71791;BME280;59638;52.126;5.434;2023-05-16T08:24:53;102295.38;;;18.05;68.35
71791;BME280;59638;52.126;5.434;2023-05-16T08:27:23;102296.72;;;19.06;66.05
71791;BME280;59638;52.126;5.434;2023-05-16T08:29:49;102298.53;;;19.23;61.08
71791;BME280;59638;52.126;5.434;2023-05-16T08:32:16;102300.34;;;19.57;60.27
71791;BME280;59638;52.126;5.434;2023-05-16T08:34:42;102280.25;;;20.20;60.52
71791;BME280;59638;52.126;5.434;2023-05-16T08:37:09;102285.19;;;21.45;56.21
71791;BME280;59638;52.126;5.434;2023-05-16T08:39:37;102278.91;;;22.61;53.20
71791;BME280;59638;52.126;5.434;2023-05-16T08:42:04;102277.81;;;21.47;56.83
71791;BME280;59638;52.126;5.434;2023-05-16T08:44:31;102283.50;;;20.56;62.98
71791;BME280;59638;52.126;5.434;2023-05-16T08:47:04;102285.09;;;19.15;64.33
71791;BME280;59638;52.126;5.434;2023-05-16T08:49:33;102306.09;;;16.54;68.13
71791;BME280;59638;52.126;5.434;2023-05-16T08:52:00;102302.59;;;14.83;75.00
71791;BME280;59638;52.126;5.434;2023-05-16T08:54:28;102302.22;;;13.80;76.98
71791;BME280;59638;52.126;5.434;2023-05-16T08:56:56;102295.88;;;14.04;81.17
71791;BME280;59638;52.126;5.434;2023-05-16T08:59:23;102285.66;;;17.49;69.69
71791;BME280;59638;52.126;5.434;2023-05-16T09:01:50;102287.97;;;19.56;61.75
71791;BME280;59638;52.126;5.434;2023-05-16T09:04:17;102272.38;;;21.55;55.48
71791;BME280;59638;52.126;5.434;2023-05-16T09:06:44;102288.59;;;22.32;52.70
71791;BME280;59638;52.126;5.434;2023-05-16T09:09:10;102298.09;;;19.70;61.27
71791;BME280;59638;52.126;5.434;2023-05-16T09:11:38;102306.28;;;18.11;60.46
71791;BME280;59638;52.126;5.434;2023-05-16T09:14:04;102305.09;;;18.24;62.36
71791;BME280;59638;52.126;5.434;2023-05-16T09:16:31;102296.91;;;19.39;56.89
71791;BME280;59638;52.126;5.434;2023-05-16T09:18:59;102299.38;;;18.98;59.91
71791;BME280;59638;52.126;5.434;2023-05-16T09:21:35;102297.66;;;19.49;56.45
71791;BME280;59638;52.126;5.434;2023-05-16T09:24:07;102297.72;;;18.61;57.03
71791;BME280;59638;52.126;5.434;2023-05-16T09:26:36;102307.47;;;17.44;60.17
71791;BME280;59638;52.126;5.434;2023-05-16T09:29:12;102303.53;;;19.26;57.75
71791;BME280;59638;52.126;5.434;2023-05-16T09:31:39;102293.53;;;20.21;55.06
71791;BME280;59638;52.126;5.434;2023-05-16T09:34:07;102299.44;;;20.57;52.27
71791;BME280;59638;52.126;5.434;2023-05-16T09:36:34;102291.00;;;20.20;51.76
71791;BME280;59638;52.126;5.434;2023-05-16T09:39:02;102287.44;;;21.64;48.77
71791;BME280;59638;52.126;5.434;2023-05-16T09:41:32;102304.13;;;19.72;52.30
71791;BME280;59638;52.126;5.434;2023-05-16T09:44:03;102297.56;;;20.82;48.42
71791;BME280;59638;52.126;5.434;2023-05-16T09:46:33;102300.09;;;22.18;44.83
71791;BME280;59638;52.126;5.434;2023-05-16T09:49:00;102292.69;;;22.43;43.34
71791;BME280;59638;52.126;5.434;2023-05-16T09:51:26;102297.47;;;23.52;42.82
71791;BME280;59638;52.126;5.434;2023-05-16T09:53:53;102302.59;;;22.65;46.67
71791;BME280;59638;52.126;5.434;2023-05-16T09:56:20;102298.88;;;23.48;44.21
71791;BME280;59638;52.126;5.434;2023-05-16T09:58:46;102306.13;;;23.63;42.52
71791;BME280;59638;52.126;5.434;2023-05-16T10:01:15;102304.94;;;24.01;41.48
71791;BME280;59638;52.126;5.434;2023-05-16T10:03:41;102301.88;;;24.26;37.61
71791;BME280;59638;52.126;5.434;2023-05-16T10:06:09;102289.56;;;24.38;39.57
71791;BME280;59638;52.126;5.434;2023-05-16T10:08:36;102287.22;;;24.56;39.48
71791;BME280;59638;52.126;5.434;2023-05-16T10:11:04;102291.69;;;23.55;38.13
71791;BME280;59638;52.126;5.434;2023-05-16T10:13:33;102291.19;;;20.91;46.53
71791;BME280;59638;52.126;5.434;2023-05-16T10:16:13;102304.56;;;19.34;48.47
71791;BME280;59638;52.126;5.434;2023-05-16T10:18:41;102294.75;;;20.68;47.50
71791;BME280;59638;52.126;5.434;2023-05-16T10:21:12;102301.22;;;21.14;45.76
71791;BME280;59638;52.126;5.434;2023-05-16T10:23:41;102314.09;;;18.58;47.49
71791;BME280;59638;52.126;5.434;2023-05-16T10:26:08;102306.28;;;18.11;51.47
71791;BME280;59638;52.126;5.434;2023-05-16T10:28:36;102296.91;;;21.83;42.56
71791;BME280;59638;52.126;5.434;2023-05-16T10:31:03;102291.56;;;21.83;42.88
71791;BME280;59638;52.126;5.434;2023-05-16T10:33:31;102303.25;;;20.14;44.10
71791;BME280;59638;52.126;5.434;2023-05-16T10:35:58;102299.56;;;18.79;45.95
71791;BME280;59638;52.126;5.434;2023-05-16T10:38:25;102298.19;;;18.57;49.37
71791;BME280;59638;52.126;5.434;2023-05-16T10:40:51;102292.91;;;18.65;48.40
71791;BME280;59638;52.126;5.434;2023-05-16T10:43:26;102292.19;;;20.25;44.74
71791;BME280;59638;52.126;5.434;2023-05-16T10:45:54;102292.22;;;20.50;42.06
71791;BME280;59638;52.126;5.434;2023-05-16T10:48:32;102297.94;;;20.63;43.04
71791;BME280;59638;52.126;5.434;2023-05-16T10:50:59;102306.72;;;18.96;49.09
71791;BME280;59638;52.126;5.434;2023-05-16T11:11:43;102300.56;;;19.29;44.95
71791;BME280;59638;52.126;5.434;2023-05-16T11:14:34;102301.94;;;18.46;49.77
71791;BME280;59638;52.126;5.434;2023-05-16T11:19:54;102302.44;;;17.41;49.96
71791;BME280;59638;52.126;5.434;2023-05-16T11:22:26;102309.44;;;16.95;50.36
71791;BME280;59638;52.126;5.434;2023-05-16T11:25:04;102304.97;;;16.67;50.01
71791;BME280;59638;52.126;5.434;2023-05-16T11:27:36;102304.28;;;16.84;51.35
71791;BME280;59638;52.126;5.434;2023-05-16T11:32:37;102296.13;;;16.56;52.13
71791;BME280;59638;52.126;5.434;2023-05-16T11:35:06;102316.69;;;15.96;52.18
71791;BME280;59638;52.126;5.434;2023-05-16T11:37:34;102316.91;;;15.43;53.91
71791;BME280;59638;52.126;5.434;2023-05-16T11:40:08;102323.19;;;15.12;54.62
71791;BME280;59638;52.126;5.434;2023-05-16T11:42:41;102318.41;;;14.85;55.77
71791;BME280;59638;52.126;5.434;2023-05-16T11:45:09;102322.72;;;14.65;55.59
71791;BME280;59638;52.126;5.434;2023-05-16T11:47:39;102326.22;;;14.65;55.16
71791;BME280;59638;52.126;5.434;2023-05-16T11:50:10;102334.63;;;14.50;56.76
71791;BME280;59638;52.126;5.434;2023-05-16T11:52:37;102332.31;;;14.45;56.86
71791;BME280;59638;52.126;5.434;2023-05-16T11:55:05;102331.63;;;14.43;57.56
71791;BME280;59638;52.126;5.434;2023-05-16T11:57:32;102334.13;;;14.45;56.51
71791;BME280;59638;52.126;5.434;2023-05-16T12:02:36;102335.97;;;13.90;57.86
71791;BME280;59638;52.126;5.434;2023-05-16T12:05:09;102331.88;;;13.85;58.88
71791;BME280;59638;52.126;5.434;2023-05-16T12:07:36;102337.66;;;13.79;59.68
71791;BME280;59638;52.126;5.434;2023-05-16T12:10:06;102334.63;;;14.06;60.33
71791;BME280;59638;52.126;5.434;2023-05-16T12:12:35;102329.59;;;14.35;59.64
71791;BME280;59638;52.126;5.434;2023-05-16T12:15:03;102337.72;;;14.66;58.38
71791;BME280;59638;52.126;5.434;2023-05-16T12:17:29;102336.09;;;14.75;58.14
71791;BME280;59638;52.126;5.434;2023-05-16T12:19:59;102331.38;;;15.20;57.90
71791;BME280;59638;52.126;5.434;2023-05-16T12:22:25;102336.81;;;15.39;58.70
71791;BME280;59638;52.126;5.434;2023-05-16T12:24:52;102326.22;;;15.28;57.81
71791;BME280;59638;52.126;5.434;2023-05-16T12:27:22;102328.19;;;14.84;57.37
71791;BME280;59638;52.126;5.434;2023-05-16T12:29:49;102330.16;;;14.39;59.43
71791;BME280;59638;52.126;5.434;2023-05-16T12:32:19;102332.03;;;14.27;58.43
71791;BME280;59638;52.126;5.434;2023-05-16T12:34:50;102333.75;;;14.06;60.76
71791;BME280;59638;52.126;5.434;2023-05-16T12:37:18;102340.50;;;14.21;61.06
71791;BME280;59638;52.126;5.434;2023-05-16T12:39:46;102340.72;;;14.29;60.74
71791;BME280;59638;52.126;5.434;2023-05-16T12:42:13;102345.16;;;14.40;61.36
71791;BME280;59638;52.126;5.434;2023-05-16T12:44:44;102343.44;;;14.50;61.29
71791;BME280;59638;52.126;5.434;2023-05-16T12:47:11;102345.75;;;14.43;61.31
71791;BME280;59638;52.126;5.434;2023-05-16T12:49:45;102338.06;;;14.29;62.48
71791;BME280;59638;52.126;5.434;2023-05-16T12:52:17;102333.44;;;15.16;62.22
71791;BME280;59638;52.126;5.434;2023-05-16T12:54:46;102332.56;;;15.37;60.50
71791;BME280;59638;52.126;5.434;2023-05-16T12:57:13;102332.94;;;15.02;61.43
71791;BME280;59638;52.126;5.434;2023-05-16T12:59:40;102333.66;;;14.51;61.42
71791;BME280;59638;52.126;5.434;2023-05-16T13:02:06;102340.03;;;14.16;63.21
71791;BME280;59638;52.126;5.434;2023-05-16T13:04:33;102343.59;;;13.94;65.12
71791;BME280;59638;52.126;5.434;2023-05-16T13:06:59;102348.19;;;13.81;65.46
71791;BME280;59638;52.126;5.434;2023-05-16T13:09:26;102343.31;;;13.86;64.93
71791;BME280;59638;52.126;5.434;2023-05-16T13:11:56;102345.41;;;13.71;62.88
71791;BME280;59638;52.126;5.434;2023-05-16T13:14:23;102339.38;;;13.69;62.33
71791;BME280;59638;52.126;5.434;2023-05-16T13:16:49;102345.03;;;13.65;63.73
71791;BME280;59638;52.126;5.434;2023-05-16T13:19:16;102340.78;;;14.39;61.93
71791;BME280;59638;52.126;5.434;2023-05-16T13:21:43;102340.91;;;15.02;59.65
71791;BME280;59638;52.126;5.434;2023-05-16T13:24:09;102345.34;;;15.12;60.58
71791;BME280;59638;52.126;5.434;2023-05-16T13:26:36;102339.88;;;14.93;61.25
71791;BME280;59638;52.126;5.434;2023-05-16T13:29:02;102341.63;;;14.51;62.58
71791;BME280;59638;52.126;5.434;2023-05-16T13:31:29;102352.34;;;14.17;62.95